createdAt,value
2019-05-14T00:00:21.479Z,7.00
2019-05-14T00:02:52.132Z,7.00
2019-05-14T00:05:23.360Z,6.90
2019-05-14T00:07:54.331Z,6.90
2019-05-14T00:10:26.457Z,6.90
2019-05-14T00:12:57.669Z,6.90
2019-05-14T00:15:32.046Z,6.90
2019-05-14T00:18:03.105Z,7.00
2019-05-14T00:20:34.340Z,7.00
2019-05-14T00:23:05.819Z,7.00
2019-05-14T00:25:46.025Z,7.00
2019-05-14T00:28:44.457Z,7.10
2019-05-14T00:31:42.723Z,7.10
2019-05-14T00:34:13.841Z,7.00
2019-05-14T00:36:48.936Z,7.10
2019-05-14T00:39:42.326Z,7.10
2019-05-14T00:42:23.009Z,7.10
2019-05-14T00:44:53.830Z,7.10
2019-05-14T00:47:16.377Z,7.10
2019-05-14T00:49:51.802Z,7.10
2019-05-14T00:52:23.820Z,7.10
2019-05-14T00:54:58.026Z,7.20
2019-05-14T00:57:31.656Z,7.10
2019-05-14T01:00:03.954Z,7.10
2019-05-14T01:02:38.284Z,7.10
2019-05-14T01:05:12.176Z,7.10
2019-05-14T01:07:42.786Z,7.10
2019-05-14T01:10:22.693Z,7.10
2019-05-14T01:13:02.280Z,7.10
2019-05-14T01:15:32.218Z,7.10
2019-05-14T01:18:11.341Z,7.10
2019-05-14T01:20:41.083Z,7.10
2019-05-14T01:23:11.753Z,7.00
2019-05-14T01:25:43.084Z,7.00
2019-05-14T01:28:13.836Z,6.90
2019-05-14T01:30:44.657Z,6.90
2019-05-14T01:33:15.498Z,6.90
2019-05-14T01:35:46.418Z,6.90
2019-05-14T01:38:24.416Z,6.80
2019-05-14T01:40:55.364Z,6.80
2019-05-14T01:43:26.284Z,6.70
2019-05-14T01:45:57.286Z,6.70
2019-05-14T01:48:28.148Z,6.70
2019-05-14T01:51:01.312Z,6.70
2019-05-14T01:53:31.637Z,6.70
2019-05-14T01:56:02.597Z,6.70
2019-05-14T01:58:33.408Z,6.70
2019-05-14T02:01:04.522Z,6.70
2019-05-14T02:03:35.309Z,6.70
2019-05-14T02:06:06.235Z,6.70
2019-05-14T02:08:37.047Z,6.70
2019-05-14T02:11:07.869Z,6.70
2019-05-14T02:13:41.436Z,6.70
2019-05-14T02:16:13.239Z,6.70
2019-05-14T02:18:44.054Z,6.70
2019-05-14T02:21:16.058Z,6.70
2019-05-14T02:23:47.059Z,6.70
2019-05-14T02:26:19.128Z,6.60
2019-05-14T02:28:51.445Z,6.60
2019-05-14T02:31:23.464Z,6.60
2019-05-14T02:33:54.487Z,6.60
2019-05-14T02:36:25.537Z,6.50
2019-05-14T02:39:00.103Z,6.50
2019-05-14T02:41:32.658Z,6.40
2019-05-14T02:44:10.943Z,6.40
2019-05-14T02:46:44.545Z,6.30
2019-05-14T02:49:15.754Z,6.30
2019-05-14T02:51:50.490Z,6.20
2019-05-14T02:54:23.932Z,6.10
2019-05-14T02:56:59.633Z,6.10
2019-05-14T02:59:50.143Z,6.00
2019-05-14T03:02:20.539Z,5.90
2019-05-14T03:04:53.579Z,5.80
2019-05-14T03:07:30.150Z,5.80
2019-05-14T03:10:04.386Z,5.80
2019-05-14T03:12:39.557Z,5.70
2019-05-14T03:15:10.110Z,5.70
2019-05-14T03:18:02.526Z,5.70
2019-05-14T03:20:39.085Z,5.60
2019-05-14T03:26:19.614Z,5.60
2019-05-14T03:29:13.110Z,5.60
2019-05-14T03:31:45.652Z,5.60
2019-05-14T03:34:22.281Z,5.70
2019-05-14T03:37:03.096Z,5.70
2019-05-14T03:39:35.531Z,5.70
2019-05-14T03:42:21.463Z,5.70
2019-05-14T03:44:55.450Z,5.80
2019-05-14T03:47:29.623Z,5.80
2019-05-14T03:50:02.328Z,5.90
2019-05-14T03:52:43.653Z,5.90
2019-05-14T03:55:20.245Z,5.90
2019-05-14T03:58:39.121Z,6.00
2019-05-14T04:01:40.731Z,6.00
2019-05-14T04:04:34.543Z,6.00
2019-05-14T04:07:09.960Z,6.10
2019-05-14T04:09:49.360Z,6.10
2019-05-14T04:12:21.857Z,6.20
2019-05-14T04:14:59.383Z,6.20
2019-05-14T04:17:42.196Z,6.30
2019-05-14T04:20:19.443Z,6.30
2019-05-14T04:22:51.486Z,6.40
2019-05-14T04:25:22.948Z,6.40
2019-05-14T04:28:00.251Z,6.50
2019-05-14T04:30:34.256Z,6.50
2019-05-14T04:33:05.991Z,6.60
2019-05-14T04:35:43.314Z,6.60
2019-05-14T04:38:20.233Z,6.70
2019-05-14T04:40:53.540Z,6.70
2019-05-14T04:43:29.370Z,6.80
2019-05-14T04:46:00.368Z,6.80
2019-05-14T04:48:37.684Z,6.90
2019-05-14T04:51:04.803Z,6.90
2019-05-14T04:53:39.053Z,6.90
2019-05-14T04:56:13.077Z,6.90
2019-05-14T04:58:49.273Z,6.90
2019-05-14T05:01:20.499Z,6.90
2019-05-14T05:03:53.117Z,7.00
2019-05-14T05:06:25.222Z,7.10
2019-05-14T05:08:56.190Z,7.10
2019-05-14T05:11:29.092Z,7.20
2019-05-14T05:14:00.277Z,7.30
2019-05-14T05:16:31.971Z,7.40
2019-05-14T05:19:04.357Z,7.40
2019-05-14T05:21:38.684Z,7.50
2019-05-14T05:24:10.458Z,7.50
2019-05-14T05:26:42.082Z,7.60
2019-05-14T05:29:13.714Z,7.60
2019-05-14T05:31:45.357Z,7.60
2019-05-14T05:34:19.206Z,7.60
2019-05-14T05:36:50.828Z,7.50
2019-05-14T05:39:22.482Z,7.50
2019-05-14T05:41:54.143Z,7.60
2019-05-14T05:44:28.510Z,7.80
2019-05-14T05:46:59.756Z,7.90
2019-05-14T05:49:31.424Z,7.90
2019-05-14T05:52:04.456Z,8.00
2019-05-14T05:54:38.324Z,8.00
2019-05-14T05:57:09.875Z,8.10
2019-05-14T05:59:42.071Z,8.20
2019-05-14T06:02:14.714Z,8.30
2019-05-14T06:04:48.048Z,8.30
2019-05-14T06:07:20.194Z,8.30
2019-05-14T06:09:51.790Z,8.30
2019-05-14T06:12:23.449Z,8.20
2019-05-14T06:14:57.924Z,8.20
2019-05-14T06:17:29.344Z,8.20
2019-05-14T06:20:00.946Z,8.20
2019-05-14T06:22:32.429Z,8.20
2019-05-14T06:25:04.829Z,8.20
2019-05-14T06:27:37.995Z,8.30
2019-05-14T06:30:10.937Z,8.30
2019-05-14T06:32:43.752Z,8.40
2019-05-14T06:35:16.175Z,8.70
2019-05-14T06:37:48.962Z,8.70
2019-05-14T06:40:20.826Z,8.80
2019-05-14T06:42:55.504Z,9.10
2019-05-14T06:45:29.234Z,9.40
2019-05-14T06:48:00.802Z,9.50
2019-05-14T06:50:32.917Z,9.40
2019-05-14T06:53:04.478Z,9.40
2019-05-14T06:55:36.151Z,9.50
2019-05-14T06:58:09.183Z,9.60
2019-05-14T07:00:41.314Z,9.80
2019-05-14T07:03:13.066Z,9.80
2019-05-14T07:05:45.482Z,9.90
2019-05-14T07:08:18.771Z,10.10
2019-05-14T07:10:50.707Z,10.20
2019-05-14T07:13:23.553Z,10.10
2019-05-14T07:15:55.279Z,9.90
2019-05-14T07:18:30.210Z,9.70
2019-05-14T07:21:00.859Z,9.40
2019-05-14T07:23:32.809Z,9.10
2019-05-14T07:26:05.351Z,8.80
2019-05-14T07:28:42.130Z,8.80
2019-05-14T07:31:10.877Z,8.80
2019-05-14T07:33:42.925Z,8.90
2019-05-14T07:36:15.168Z,9.10
2019-05-14T07:38:49.050Z,9.30
2019-05-14T07:41:20.499Z,9.20
2019-05-14T07:43:52.230Z,9.20
2019-05-14T07:46:24.501Z,9.50
2019-05-14T07:49:05.478Z,10.00
2019-05-14T07:51:30.027Z,10.50
2019-05-14T07:54:03.122Z,10.40
2019-05-14T07:56:34.805Z,10.00
2019-05-14T07:59:08.480Z,9.80
2019-05-14T08:01:39.949Z,10.00
2019-05-14T08:04:11.990Z,10.30
2019-05-14T08:06:43.432Z,10.60
2019-05-14T08:09:15.239Z,10.70
2019-05-14T08:11:48.024Z,10.80
2019-05-14T08:14:19.621Z,10.80
2019-05-14T08:16:52.974Z,10.80
2019-05-14T08:19:27.859Z,11.10
2019-05-14T08:21:59.060Z,11.50
2019-05-14T08:24:30.922Z,11.50
2019-05-14T08:27:02.333Z,11.60
2019-05-14T08:29:36.852Z,12.00
2019-05-14T08:32:08.848Z,12.30
2019-05-14T08:34:40.770Z,12.20
2019-05-14T08:37:12.658Z,12.00
2019-05-14T08:39:48.396Z,11.60
2019-05-14T08:42:19.017Z,10.80
2019-05-14T08:44:51.410Z,10.60
2019-05-14T08:47:23.564Z,10.90
2019-05-14T08:49:54.643Z,11.20
2019-05-14T08:52:28.587Z,11.20
2019-05-14T08:55:07.219Z,11.00
2019-05-14T08:57:32.692Z,11.20
2019-05-14T09:00:04.460Z,11.30
2019-05-14T09:02:39.098Z,11.70
2019-05-14T09:05:11.094Z,12.10
2019-05-14T09:07:43.651Z,12.60
2019-05-14T09:10:15.582Z,12.70
2019-05-14T09:12:49.107Z,12.60
2019-05-14T09:15:20.498Z,12.30
2019-05-14T09:17:52.269Z,11.90
2019-05-14T09:20:23.616Z,11.70
2019-05-14T09:22:55.400Z,11.50
2019-05-14T09:25:29.041Z,11.30
2019-05-14T09:28:00.060Z,11.40
2019-05-14T09:30:31.798Z,11.80
2019-05-14T09:33:03.080Z,12.20
2019-05-14T09:35:34.855Z,12.60
2019-05-14T09:38:08.725Z,13.10
2019-05-14T09:40:40.015Z,13.30
2019-05-14T09:43:11.271Z,13.70
2019-05-14T09:45:43.377Z,13.90
2019-05-14T09:48:15.385Z,13.20
2019-05-14T09:50:49.021Z,12.60
2019-05-14T09:53:20.491Z,12.20
2019-05-14T09:55:52.387Z,12.00
2019-05-14T09:58:24.143Z,12.00
2019-05-14T10:00:58.816Z,12.30
2019-05-14T10:03:29.504Z,12.80
2019-05-14T10:06:01.262Z,13.20
2019-05-14T10:08:33.280Z,13.50
2019-05-14T10:11:05.079Z,13.90
2019-05-14T10:13:39.049Z,13.90
2019-05-14T10:16:10.399Z,14.10
2019-05-14T10:18:42.156Z,14.20
2019-05-14T10:21:14.276Z,13.80
2019-05-14T10:23:45.920Z,13.30
2019-05-14T10:26:18.602Z,13.30
2019-05-14T10:28:50.366Z,13.70
2019-05-14T10:31:22.075Z,13.90
2019-05-14T10:33:54.000Z,14.20
2019-05-14T10:36:25.183Z,14.20
2019-05-14T10:38:58.811Z,13.60
2019-05-14T10:41:29.485Z,13.30
2019-05-14T10:44:01.312Z,12.90
2019-05-14T10:46:33.032Z,12.90
2019-05-14T10:49:16.498Z,12.90
2019-05-14T10:51:38.884Z,13.10
2019-05-14T10:54:24.361Z,13.30
2019-05-14T10:56:44.748Z,13.30
2019-05-14T10:59:18.406Z,13.10
2019-05-14T11:01:50.097Z,13.10
2019-05-14T11:04:21.746Z,13.30
2019-05-14T11:06:54.615Z,13.40
2019-05-14T11:09:28.407Z,13.30
2019-05-14T11:11:59.669Z,13.10
2019-05-14T11:14:32.050Z,13.30
2019-05-14T11:17:03.278Z,13.70
2019-05-14T11:19:34.967Z,14.40
2019-05-14T11:22:08.442Z,14.40
2019-05-14T11:24:40.171Z,14.30
2019-05-14T11:27:12.080Z,14.30
2019-05-14T11:29:43.947Z,14.00
2019-05-14T11:32:18.269Z,13.70
2019-05-14T11:34:48.811Z,13.50
2019-05-14T11:37:20.541Z,13.20
2019-05-14T11:39:52.472Z,12.90
2019-05-14T11:42:24.271Z,13.00
2019-05-14T11:44:58.096Z,12.90
2019-05-14T11:47:29.165Z,12.80
2019-05-14T11:50:00.346Z,12.90
2019-05-14T11:52:31.903Z,12.90
2019-05-14T11:55:08.861Z,12.70
2019-05-14T11:57:40.836Z,12.90
2019-05-14T12:00:13.693Z,13.30
2019-05-14T12:02:44.876Z,13.60
2019-05-14T12:05:18.947Z,13.70
2019-05-14T12:07:50.875Z,13.60
2019-05-14T12:10:22.722Z,13.30
2019-05-14T12:12:54.813Z,13.30
2019-05-14T12:15:27.098Z,13.00
2019-05-14T12:17:59.734Z,12.80
2019-05-14T12:20:32.175Z,13.10
2019-05-14T12:23:03.913Z,13.50
2019-05-14T12:25:35.635Z,13.70
2019-05-14T12:28:13.264Z,14.00
2019-05-14T12:30:41.289Z,13.50
2019-05-14T12:33:13.548Z,13.30
2019-05-14T12:35:45.734Z,13.50
2019-05-14T12:38:18.813Z,13.40
2019-05-14T12:40:52.136Z,13.80
2019-05-14T12:43:24.336Z,14.10
2019-05-14T12:45:59.125Z,13.60
2019-05-14T12:48:30.098Z,12.90
2019-05-14T12:51:02.612Z,13.20
2019-05-14T12:53:33.445Z,13.70
2019-05-14T12:56:04.297Z,14.10
2019-05-14T12:58:35.117Z,14.20
2019-05-14T13:01:08.528Z,14.50
2019-05-14T13:03:39.158Z,14.60
2019-05-14T13:06:10.788Z,14.70
2019-05-14T13:08:42.799Z,15.00
2019-05-14T13:11:13.989Z,15.10
2019-05-14T13:13:45.561Z,15.10
2019-05-14T13:16:18.744Z,15.10
2019-05-14T13:18:49.795Z,15.30
2019-05-14T13:21:21.706Z,15.30
2019-05-14T13:23:52.740Z,15.50
2019-05-14T13:26:24.086Z,15.80
2019-05-14T13:28:55.349Z,16.00
2019-05-14T13:31:29.012Z,16.20
2019-05-14T13:33:59.662Z,16.10
2019-05-14T13:36:31.360Z,15.80
2019-05-14T13:39:04.643Z,15.80
2019-05-14T13:41:41.541Z,15.70
2019-05-14T13:44:21.301Z,15.80
2019-05-14T13:46:45.020Z,15.60
2019-05-14T13:49:19.704Z,15.60
2019-05-14T13:51:51.602Z,15.80
2019-05-14T13:54:24.189Z,16.00
2019-05-14T13:56:55.976Z,15.90
2019-05-14T13:59:27.717Z,15.90
2019-05-14T14:01:59.491Z,16.10
2019-05-14T14:04:31.415Z,15.90
2019-05-14T14:07:03.246Z,15.50
2019-05-14T14:09:34.787Z,15.00
2019-05-14T14:12:08.239Z,14.70
2019-05-14T14:14:49.327Z,14.60
2019-05-14T14:17:32.452Z,14.50
2019-05-14T14:20:20.003Z,14.10
2019-05-14T14:22:53.660Z,13.80
2019-05-14T14:25:29.793Z,13.40
2019-05-14T14:28:02.697Z,13.00
2019-05-14T14:30:35.892Z,12.70
2019-05-14T14:33:07.807Z,12.60
2019-05-14T14:35:39.342Z,12.80
2019-05-14T14:38:10.638Z,12.80
2019-05-14T14:40:41.897Z,12.60
2019-05-14T14:43:13.516Z,12.60
2019-05-14T14:45:46.352Z,12.80
2019-05-14T14:48:20.451Z,12.50
2019-05-14T14:50:52.621Z,12.60
2019-05-14T14:53:41.329Z,13.10
2019-05-14T14:56:00.415Z,13.20
2019-05-14T14:58:31.416Z,13.30
2019-05-14T15:01:03.665Z,13.40
2019-05-14T15:03:34.912Z,13.20
2019-05-14T15:06:09.658Z,12.70
2019-05-14T15:08:39.837Z,12.60
2019-05-14T15:11:12.422Z,12.90
2019-05-14T15:13:49.558Z,12.80
2019-05-14T15:16:21.798Z,12.80
2019-05-14T15:18:54.031Z,12.80
2019-05-14T15:21:25.696Z,12.60
2019-05-14T15:24:07.330Z,12.40
2019-05-14T15:26:30.819Z,12.20
2019-05-14T15:29:03.697Z,12.20
2019-05-14T15:31:35.260Z,12.20
2019-05-14T15:34:09.031Z,12.30
2019-05-14T15:36:41.695Z,12.30
2019-05-14T15:39:13.123Z,12.20
2019-05-14T15:41:49.670Z,12.00
2019-05-14T15:44:19.773Z,12.00
2019-05-14T15:46:51.530Z,12.00
2019-05-14T15:49:23.494Z,12.00
2019-05-14T15:52:02.001Z,12.10
2019-05-14T15:54:42.231Z,12.10
2019-05-14T15:57:10.375Z,11.90
2019-05-14T15:59:46.191Z,11.80
2019-05-14T16:02:23.575Z,11.80
2019-05-14T16:05:00.625Z,11.70
2019-05-14T16:07:34.485Z,11.60
2019-05-14T16:10:08.661Z,11.40
2019-05-14T16:12:40.288Z,11.20
2019-05-14T16:15:14.292Z,11.10
2019-05-14T16:18:03.124Z,11.10
2019-05-14T16:20:20.532Z,11.40
2019-05-14T16:22:52.423Z,11.30
2019-05-14T16:25:24.614Z,11.30
2019-05-14T16:27:58.787Z,11.30
2019-05-14T16:30:29.916Z,11.00
2019-05-14T16:33:01.585Z,10.60
2019-05-14T16:35:33.908Z,10.40
2019-05-14T16:38:23.229Z,10.30
2019-05-14T16:40:59.605Z,10.30
2019-05-14T16:43:32.399Z,10.30
2019-05-14T16:46:04.215Z,10.30
2019-05-14T16:48:35.822Z,10.30
2019-05-14T16:51:08.890Z,10.20
2019-05-14T16:53:40.937Z,10.30
2019-05-14T16:56:12.678Z,10.30
2019-05-14T16:58:43.739Z,10.30
2019-05-14T17:01:15.009Z,10.20
2019-05-14T17:03:48.952Z,10.30
2019-05-14T17:06:19.940Z,10.60
2019-05-14T17:08:52.161Z,10.50
2019-05-14T17:11:23.855Z,10.40
2019-05-14T17:13:57.628Z,10.50
2019-05-14T17:16:29.098Z,10.70
2019-05-14T17:19:00.605Z,11.10
2019-05-14T17:21:32.404Z,11.00
2019-05-14T17:24:04.102Z,10.50
2019-05-14T17:26:37.948Z,10.10
2019-05-14T17:29:08.835Z,9.90
2019-05-14T17:31:40.298Z,9.70
2019-05-14T17:34:11.955Z,9.60
2019-05-14T17:36:43.783Z,9.40
2019-05-14T17:39:15.581Z,9.30
2019-05-14T17:41:48.499Z,9.10
2019-05-14T17:44:20.556Z,9.00
2019-05-14T17:46:52.456Z,8.90
2019-05-14T17:49:23.558Z,8.80
2019-05-14T17:51:55.225Z,8.80
2019-05-14T17:54:28.468Z,8.70
2019-05-14T17:57:01.423Z,8.70
2019-05-14T17:59:33.655Z,8.60
2019-05-14T18:02:05.554Z,8.50
2019-05-14T18:04:37.347Z,8.40
2019-05-14T18:07:09.241Z,8.30
2019-05-14T18:09:41.249Z,8.30
2019-05-14T18:12:13.137Z,8.20
2019-05-14T18:14:45.064Z,8.20
2019-05-14T18:17:18.845Z,8.10
2019-05-14T18:19:50.725Z,8.20
2019-05-14T18:22:22.594Z,8.10
2019-05-14T18:24:54.366Z,8.10
2019-05-14T18:27:29.116Z,8.00
2019-05-14T18:29:59.749Z,8.00
2019-05-14T18:32:31.671Z,8.00
2019-05-14T18:35:03.421Z,8.00
2019-05-14T18:37:35.388Z,8.00
2019-05-14T18:40:09.098Z,7.90
2019-05-14T18:42:41.031Z,7.90
2019-05-14T18:45:13.021Z,7.90
2019-05-14T18:47:44.707Z,7.90
2019-05-14T18:50:19.369Z,7.90
2019-05-14T18:52:49.637Z,7.80
2019-05-14T18:55:21.597Z,7.90
2019-05-14T18:57:53.367Z,7.80
2019-05-14T19:00:25.331Z,7.80
2019-05-14T19:02:57.589Z,7.80
2019-05-14T19:05:30.089Z,7.80
2019-05-14T19:08:01.841Z,7.80
2019-05-14T19:10:33.549Z,7.80
2019-05-14T19:13:08.906Z,7.70
2019-05-14T19:15:40.893Z,7.70
2019-05-14T19:18:13.875Z,7.70
2019-05-14T19:20:45.609Z,7.70
2019-05-14T19:23:18.779Z,7.70
2019-05-14T19:25:50.677Z,7.70
2019-05-14T19:28:22.418Z,7.70
2019-05-14T19:30:54.121Z,7.70
2019-05-14T19:33:25.887Z,7.70
2019-05-14T19:35:57.598Z,7.70
2019-05-14T19:38:29.446Z,7.70
2019-05-14T19:41:01.144Z,7.70
2019-05-14T19:43:32.949Z,7.70
2019-05-14T19:46:04.575Z,7.70
2019-05-14T19:48:36.335Z,7.70
2019-05-14T19:51:08.353Z,7.70
2019-05-14T19:53:40.316Z,7.70
2019-05-14T19:56:11.623Z,7.70
2019-05-14T19:58:42.808Z,7.60
2019-05-14T20:01:13.935Z,7.70
2019-05-14T20:03:45.838Z,7.70
2019-05-14T20:06:18.724Z,7.70
2019-05-14T20:08:49.928Z,7.70
2019-05-14T20:11:20.807Z,7.70
2019-05-14T20:13:51.647Z,7.60
2019-05-14T20:16:22.466Z,7.70
2019-05-14T20:18:53.831Z,7.70
2019-05-14T20:21:25.003Z,7.70
2019-05-14T20:23:56.403Z,7.70
2019-05-14T20:26:28.212Z,7.70
2019-05-14T20:28:59.608Z,7.60
2019-05-14T20:31:30.818Z,7.60
2019-05-14T20:34:01.895Z,7.60
2019-05-14T20:36:33.429Z,7.60
2019-05-14T20:39:08.485Z,7.60
2019-05-14T20:41:39.312Z,7.60
2019-05-14T20:44:10.483Z,7.60
2019-05-14T20:46:41.873Z,7.60
2019-05-14T20:49:13.610Z,7.60
2019-05-14T20:51:45.336Z,7.60
2019-05-14T20:54:18.392Z,7.60
2019-05-14T20:56:50.465Z,7.60
2019-05-14T20:59:22.487Z,7.60
2019-05-14T21:01:58.788Z,7.60
2019-05-14T21:04:29.825Z,7.60
2019-05-14T21:07:02.665Z,7.60
2019-05-14T21:09:34.285Z,7.60
2019-05-14T21:12:13.728Z,7.60
2019-05-14T21:14:53.150Z,7.60
2019-05-14T21:17:24.541Z,7.60
2019-05-14T21:19:56.493Z,7.60
2019-05-14T21:22:29.151Z,7.60
2019-05-14T21:25:01.829Z,7.60
2019-05-14T21:27:43.883Z,7.60
2019-05-14T21:30:09.292Z,7.60
2019-05-14T21:32:42.580Z,7.60
2019-05-14T21:35:15.848Z,7.60
2019-05-14T21:37:51.470Z,7.50
2019-05-14T21:40:22.234Z,7.60
2019-05-14T21:42:53.979Z,7.60
2019-05-14T21:45:26.118Z,7.60
2019-05-14T21:48:02.381Z,7.50
2019-05-14T21:50:33.872Z,7.50
2019-05-14T21:53:05.214Z,7.50
2019-05-14T21:55:38.718Z,7.50
2019-05-14T21:58:11.923Z,7.50
2019-05-14T22:00:48.557Z,7.50
2019-05-14T22:03:20.836Z,7.50
2019-05-14T22:05:52.399Z,7.50
2019-05-14T22:08:23.606Z,7.50
2019-05-14T22:10:55.250Z,7.40
2019-05-14T22:13:28.432Z,7.40
2019-05-14T22:16:00.638Z,7.40
2019-05-14T22:18:32.061Z,7.40
2019-05-14T22:21:03.362Z,7.40
2019-05-14T22:23:34.668Z,7.40
2019-05-14T22:26:06.049Z,7.40
2019-05-14T22:28:37.502Z,7.40
2019-05-14T22:31:09.187Z,7.40
2019-05-14T22:33:40.787Z,7.40
2019-05-14T22:36:12.085Z,7.40
2019-05-14T22:38:43.804Z,7.40
2019-05-14T22:41:18.170Z,7.40
2019-05-14T22:43:51.479Z,7.40
2019-05-14T22:46:22.025Z,7.50
2019-05-14T22:48:53.630Z,7.40
2019-05-14T22:51:25.488Z,7.50
2019-05-14T22:53:58.868Z,7.50
2019-05-14T22:56:30.190Z,7.50
2019-05-14T22:59:01.542Z,7.40
2019-05-14T23:01:33.073Z,7.50
2019-05-14T23:04:05.673Z,7.40
2019-05-14T23:06:38.282Z,7.50
2019-05-14T23:09:09.744Z,7.50
2019-05-14T23:11:41.065Z,7.40
2019-05-14T23:14:12.507Z,7.40
2019-05-14T23:16:44.181Z,7.40
2019-05-14T23:19:18.606Z,7.40
2019-05-14T23:21:49.718Z,7.40
2019-05-14T23:24:21.240Z,7.40
2019-05-14T23:26:52.705Z,7.40
2019-05-14T23:29:24.557Z,7.40
2019-05-14T23:31:58.660Z,7.40
2019-05-14T23:34:29.755Z,7.40
2019-05-14T23:37:01.676Z,7.40
2019-05-14T23:39:33.254Z,7.40
2019-05-14T23:42:05.339Z,7.40
2019-05-14T23:44:38.261Z,7.40
2019-05-14T23:47:09.593Z,7.30
2019-05-14T23:49:40.928Z,7.30
2019-05-14T23:52:13.936Z,7.30
2019-05-14T23:54:45.400Z,7.30
2019-05-14T23:57:18.292Z,7.30
2019-05-14T23:59:51.051Z,7.30
